MSC Tasmania — HPCF — position and weather

sailwx.info

Track history (hours):
 
Tides and Currents Weather Stations Pressure Air Temp Water Temp Dewpoint Dewpoint Depression Visibility Wind Speed Wind Dir Waves Ship Positions

MSC Tasmania

Last reported at 2018-Aug-15 16:10 UTC. Time now 2018-Aug-16 08:01 UTC.
Position N 37°37' E 023°46'.

Type: Cargo ship. MMSI: 355129000.

Date/timePositionNaut miles runAvg speedWind from/ knotsBaromVisibWave heightAir tempDewpointWater temp
2018-Aug-15 16:10N 37°37' E 023°46'214.3
2018-Aug-15 16:00N 37°38' E 023°44'815.2
2018-Aug-15 15:30N 37°45' E 023°39'714.5
2018-Aug-15 15:01N 37°52' E 023°36'510.1
2018-Aug-15 14:30N 37°57' E 023°36'0 0.8
2018-Aug-15 13:58N 37°57' E 023°35'0 0.0
2018-Aug-15 13:28N 37°57' E 023°35'0 0.0
2018-Aug-15 12:55N 37°57' E 023°35'0 0.0
2018-Aug-15 12:28N 37°57' E 023°35'0 0.1
2018-Aug-15 11:58N 37°57' E 023°35'0 0.1
2018-Aug-15 11:28N 37°57' E 023°35'0 0.0
2018-Aug-15 10:58N 37°57' E 023°35'0 0.0
2018-Aug-15 10:28N 37°57' E 023°35'0 0.0
2018-Aug-15 09:58N 37°57' E 023°35'0 0.0
2018-Aug-15 09:28N 37°57' E 023°35'0 0.0
2018-Aug-15 08:58N 37°57' E 023°35'0 0.0
2018-Aug-15 08:25N 37°57' E 023°35'0 0.0
2018-Aug-15 07:58N 37°57' E 023°35'0 0.0
2018-Aug-15 06:52N 37°57' E 023°35'0 0.0
2018-Aug-15 06:28N 37°57' E 023°35'0 0.0
2018-Aug-15 05:43N 37°57' E 023°35'0 0.0
2018-Aug-15 05:19N 37°57' E 023°35'0 0.0
2018-Aug-15 04:52N 37°57' E 023°35'0 0.0
2018-Aug-15 04:16N 37°57' E 023°35'0 0.0
2018-Aug-15 03:58N 37°57' E 023°35'0 0.0
2018-Aug-15 03:28N 37°57' E 023°35'0 0.0
2018-Aug-15 02:58N 37°57' E 023°35'0 0.0
2018-Aug-14 23:01N 37°57' E 023°35'0 0.1
2018-Aug-14 22:58N 37°57' E 023°35'0 0.0
2018-Aug-14 22:28N 37°57' E 023°35'0 0.0
2018-Aug-14 21:58N 37°57' E 023°35'0 0.0
2018-Aug-14 21:28N 37°57' E 023°35'0 0.0
2018-Aug-14 20:58N 37°57' E 023°35'0 0.0
2018-Aug-14 20:28N 37°57' E 023°35'0 0.0
2018-Aug-14 19:58N 37°57' E 023°35'0 0.0
2018-Aug-14 19:28N 37°57' E 023°35'0 0.0
2018-Aug-14 18:58N 37°57' E 023°35'0 0.0
2018-Aug-14 18:28N 37°57' E 023°35'0 0.0
2018-Aug-14 17:58N 37°57' E 023°35'0 0.0
2018-Aug-14 17:28N 37°57' E 023°35'0 0.0
2018-Aug-14 16:58N 37°57' E 023°35'0 0.0
2018-Aug-14 16:28N 37°57' E 023°35'0 0.0
2018-Aug-14 15:58N 37°57' E 023°35'0 0.0
2018-Aug-14 15:28N 37°57' E 023°35'0 0.0
2018-Aug-14 14:58N 37°57' E 023°35'0 0.0
2018-Aug-14 14:28N 37°57' E 023°35'0 0.8
2018-Aug-14 14:00N 37°57' E 023°35'2 4.0
2018-Aug-14 13:30N 37°55' E 023°36'1 1.7
2018-Aug-14 13:00N 37°54' E 023°35'2 4.1
2018-Aug-14 12:30N 37°52' E 023°35'0 0.5
2018-Aug-14 12:00N 37°52' E 023°35'1 1.4
2018-Aug-14 11:30N 37°52' E 023°35'3 5.7
2018-Aug-14 11:00N 37°51' E 023°39'3 6.1
2018-Aug-14 10:30N 37°48' E 023°41'4 7.6
2018-Aug-14 10:00N 37°45' E 023°43'611.7
2018-Aug-14 09:30N 37°39' E 023°46'4 8.6
2018-Aug-14 08:59N 37°35' E 023°47'2315.4
2018-Aug-14 07:29N 37°12' E 023°46'39312.0
2018-Aug-12 22:41N 38°07' E 015°34'315.9
2018-Aug-12 22:30N 38°09' E 015°35'  
2018-Aug-09 02:24N 38°13' E 015°37'1112.0
2018-Aug-09 01:28N 38°02' E 015°35'38811.4
2018-Aug-07 15:18N 37°14' E 023°42'1115.6
2018-Aug-07 14:37N 37°24' E 023°42'915.2
2018-Aug-07 14:01N 37°33' E 023°42'714.6
2018-Aug-07 13:30N 37°41' E 023°41'815.1
2018-Aug-07 13:01N 37°48' E 023°38'714.6
2018-Aug-07 12:30N 37°55' E 023°36'2 4.7
2018-Aug-07 12:00N 37°57' E 023°36'0 0.3
2018-Aug-07 11:31N 37°57' E 023°36'0 0.0
2018-Aug-07 10:59N 37°57' E 023°36'0 0.0
2018-Aug-07 10:29N 37°57' E 023°36'0 0.0
2018-Aug-07 09:59N 37°57' E 023°36'0 0.0
2018-Aug-07 09:29N 37°57' E 023°36'0 0.0
2018-Aug-07 08:59N 37°57' E 023°36'0 0.0
2018-Aug-07 08:29N 37°57' E 023°36'0 0.0
2018-Aug-07 07:59N 37°57' E 023°36'0 0.0
2018-Aug-07 07:29N 37°57' E 023°36'0 0.0
2018-Aug-07 06:59N 37°57' E 023°36'0 0.0
2018-Aug-07 06:29N 37°57' E 023°36'0 0.0
2018-Aug-07 05:59N 37°57' E 023°36'0 0.0
2018-Aug-07 05:29N 37°57' E 023°36'0 0.0
2018-Aug-07 04:59N 37°57' E 023°36'0 0.0
2018-Aug-07 04:29N 37°57' E 023°36'0 0.0
2018-Aug-07 03:59N 37°57' E 023°36'0 0.0
2018-Aug-07 03:29N 37°57' E 023°36'0 0.0
2018-Aug-07 02:59N 37°57' E 023°36'0 0.0
2018-Aug-07 02:29N 37°57' E 023°36'0 0.0
2018-Aug-07 01:59N 37°57' E 023°36'0 0.0
2018-Aug-07 01:29N 37°57' E 023°36'0 0.0
2018-Aug-07 00:59N 37°57' E 023°36'0 0.0
2018-Aug-07 00:23N 37°57' E 023°36'0 0.0
2018-Aug-06 23:59N 37°57' E 023°36'0 0.0
2018-Aug-06 23:29N 37°57' E 023°36'0 0.0
2018-Aug-06 22:59N 37°57' E 023°36'0 0.0
2018-Aug-06 22:29N 37°57' E 023°36'0 0.0
2018-Aug-06 21:59N 37°57' E 023°36'0 0.0
2018-Aug-06 21:29N 37°57' E 023°36'0 0.0
2018-Aug-06 20:59N 37°57' E 023°36'0 0.0
2018-Aug-06 20:29N 37°57' E 023°36'0 0.0
2018-Aug-06 19:59N 37°57' E 023°36'0 0.0
2018-Aug-06 19:29N 37°57' E 023°36'0 0.0
2018-Aug-06 18:59N 37°57' E 023°36'0 0.0
2018-Aug-06 18:29N 37°57' E 023°36'0 0.0
2018-Aug-06 17:59N 37°57' E 023°36'0 0.0
2018-Aug-06 17:29N 37°57' E 023°36'0 0.0
2018-Aug-06 16:59N 37°57' E 023°36'0 0.0
2018-Aug-06 16:29N 37°57' E 023°36'0 0.0
2018-Aug-06 15:59N 37°57' E 023°36'0 0.0
2018-Aug-06 15:29N 37°57' E 023°36'0 0.0
2018-Aug-06 14:59N 37°57' E 023°36'0 0.0
2018-Aug-06 14:29N 37°57' E 023°36'0 0.0
2018-Aug-06 13:59N 37°57' E 023°36'0 0.0
2018-Aug-06 13:29N 37°57' E 023°36'0 0.0
2018-Aug-06 12:59N 37°57' E 023°36'0 0.0
2018-Aug-06 12:29N 37°57' E 023°36'0 0.0
2018-Aug-06 11:59N 37°57' E 023°36'0 0.0
2018-Aug-06 11:29N 37°57' E 023°36'0 0.0
2018-Aug-06 11:00N 37°57' E 023°36'2 3.7
2018-Aug-06 10:30N 37°56' E 023°36'2 4.3
2018-Aug-06 10:00N 37°53' E 023°37'4 7.9
2018-Aug-06 09:30N 37°50' E 023°40'612.3
2018-Aug-06 09:00N 37°44' E 023°43'612.3
2018-Aug-06 08:30N 37°39' E 023°45'612.1
2018-Aug-06 07:58N 37°32' E 023°45'1 1.4
2018-Aug-06 07:29N 37°32' E 023°45'1 0.9
2018-Aug-06 06:55N 37°32' E 023°44'0 0.9
2018-Aug-06 06:29N 37°32' E 023°44'1 0.9
2018-Aug-06 05:55N 37°32' E 023°44'0 1.0
2018-Aug-06 05:29N 37°33' E 023°43'1 1.0
2018-Aug-06 04:58N 37°33' E 023°43'1 1.1
2018-Aug-06 04:14N 37°33' E 023°42'0 1.1
2018-Aug-06 04:00N 37°33' E 023°41'1 1.0
2018-Aug-06 03:30N 37°34' E 023°41'0 0.9
2018-Aug-06 03:00N 37°34' E 023°41'0 0.8
2018-Aug-06 02:30N 37°34' E 023°40'0 0.4
2018-Aug-06 01:58N 37°35' E 023°40'2 4.8
2018-Aug-06 01:30N 37°37' E 023°41'713.1
2018-Aug-06 01:00N 37°43' E 023°40'3 5.2
2018-Aug-06 00:30N 37°45' E 023°42'510.7
2018-Aug-06 00:00N 37°40' E 023°45'2410.0
2018-Aug-05 21:35N 37°44' E 024°15'  
Track history (hours):
 
Tides and Currents Weather Stations Pressure Air Temp Water Temp Dewpoint Dewpoint Depression Visibility Wind Speed Wind Dir Waves Ship Positions

MSC Tasmania

Last reported at 2018-Aug-15 16:10 UTC. Time now 2018-Aug-16 08:01 UTC.
Position N 37°37' E 023°46'.

Type: Cargo ship. MMSI: 355129000.

Date/timePositionNaut miles runAvg speedWind from/ knotsBaromVisibWave heightAir tempDewpointWater temp
2018-Aug-15 16:10N 37°37' E 023°46'214.3
2018-Aug-15 16:00N 37°38' E 023°44'815.2
2018-Aug-15 15:30N 37°45' E 023°39'714.5
2018-Aug-15 15:01N 37°52' E 023°36'510.1
2018-Aug-15 14:30N 37°57' E 023°36'0 0.8
2018-Aug-15 13:58N 37°57' E 023°35'0 0.0
2018-Aug-15 13:28N 37°57' E 023°35'0 0.0
2018-Aug-15 12:55N 37°57' E 023°35'0 0.0
2018-Aug-15 12:28N 37°57' E 023°35'0 0.1
2018-Aug-15 11:58N 37°57' E 023°35'0 0.1
2018-Aug-15 11:28N 37°57' E 023°35'0 0.0
2018-Aug-15 10:58N 37°57' E 023°35'0 0.0
2018-Aug-15 10:28N 37°57' E 023°35'0 0.0
2018-Aug-15 09:58N 37°57' E 023°35'0 0.0
2018-Aug-15 09:28N 37°57' E 023°35'0 0.0
2018-Aug-15 08:58N 37°57' E 023°35'0 0.0
2018-Aug-15 08:25N 37°57' E 023°35'0 0.0
2018-Aug-15 07:58N 37°57' E 023°35'0 0.0
2018-Aug-15 06:52N 37°57' E 023°35'0 0.0
2018-Aug-15 06:28N 37°57' E 023°35'0 0.0
2018-Aug-15 05:43N 37°57' E 023°35'0 0.0
2018-Aug-15 05:19N 37°57' E 023°35'0 0.0
2018-Aug-15 04:52N 37°57' E 023°35'0 0.0
2018-Aug-15 04:16N 37°57' E 023°35'0 0.0
2018-Aug-15 03:58N 37°57' E 023°35'0 0.0
2018-Aug-15 03:28N 37°57' E 023°35'0 0.0
2018-Aug-15 02:58N 37°57' E 023°35'0 0.0
2018-Aug-14 23:01N 37°57' E 023°35'0 0.1
2018-Aug-14 22:58N 37°57' E 023°35'0 0.0
2018-Aug-14 22:28N 37°57' E 023°35'0 0.0
2018-Aug-14 21:58N 37°57' E 023°35'0 0.0
2018-Aug-14 21:28N 37°57' E 023°35'0 0.0
2018-Aug-14 20:58N 37°57' E 023°35'0 0.0
2018-Aug-14 20:28N 37°57' E 023°35'0 0.0
2018-Aug-14 19:58N 37°57' E 023°35'0 0.0
2018-Aug-14 19:28N 37°57' E 023°35'0 0.0
2018-Aug-14 18:58N 37°57' E 023°35'0 0.0
2018-Aug-14 18:28N 37°57' E 023°35'0 0.0
2018-Aug-14 17:58N 37°57' E 023°35'0 0.0
2018-Aug-14 17:28N 37°57' E 023°35'0 0.0
2018-Aug-14 16:58N 37°57' E 023°35'0 0.0
2018-Aug-14 16:28N 37°57' E 023°35'0 0.0
2018-Aug-14 15:58N 37°57' E 023°35'0 0.0
2018-Aug-14 15:28N 37°57' E 023°35'0 0.0
2018-Aug-14 14:58N 37°57' E 023°35'0 0.0
2018-Aug-14 14:28N 37°57' E 023°35'0 0.8
2018-Aug-14 14:00N 37°57' E 023°35'2 4.0
2018-Aug-14 13:30N 37°55' E 023°36'1 1.7
2018-Aug-14 13:00N 37°54' E 023°35'2 4.1
2018-Aug-14 12:30N 37°52' E 023°35'0 0.5
2018-Aug-14 12:00N 37°52' E 023°35'1 1.4
2018-Aug-14 11:30N 37°52' E 023°35'3 5.7
2018-Aug-14 11:00N 37°51' E 023°39'3 6.1
2018-Aug-14 10:30N 37°48' E 023°41'4 7.6
2018-Aug-14 10:00N 37°45' E 023°43'611.7
2018-Aug-14 09:30N 37°39' E 023°46'4 8.6
2018-Aug-14 08:59N 37°35' E 023°47'2315.4
2018-Aug-14 07:29N 37°12' E 023°46'39312.0
2018-Aug-12 22:41N 38°07' E 015°34'315.9
2018-Aug-12 22:30N 38°09' E 015°35'  
2018-Aug-09 02:24N 38°13' E 015°37'1112.0
2018-Aug-09 01:28N 38°02' E 015°35'38811.4
2018-Aug-07 15:18N 37°14' E 023°42'1115.6
2018-Aug-07 14:37N 37°24' E 023°42'915.2
2018-Aug-07 14:01N 37°33' E 023°42'714.6
2018-Aug-07 13:30N 37°41' E 023°41'815.1
2018-Aug-07 13:01N 37°48' E 023°38'714.6
2018-Aug-07 12:30N 37°55' E 023°36'2 4.7
2018-Aug-07 12:00N 37°57' E 023°36'0 0.3
2018-Aug-07 11:31N 37°57' E 023°36'0 0.0
2018-Aug-07 10:59N 37°57' E 023°36'0 0.0
2018-Aug-07 10:29N 37°57' E 023°36'0 0.0
2018-Aug-07 09:59N 37°57' E 023°36'0 0.0
2018-Aug-07 09:29N 37°57' E 023°36'0 0.0
2018-Aug-07 08:59N 37°57' E 023°36'0 0.0
2018-Aug-07 08:29N 37°57' E 023°36'0 0.0
2018-Aug-07 07:59N 37°57' E 023°36'0 0.0
2018-Aug-07 07:29N 37°57' E 023°36'0 0.0
2018-Aug-07 06:59N 37°57' E 023°36'0 0.0
2018-Aug-07 06:29N 37°57' E 023°36'0 0.0
2018-Aug-07 05:59N 37°57' E 023°36'0 0.0
2018-Aug-07 05:29N 37°57' E 023°36'0 0.0
2018-Aug-07 04:59N 37°57' E 023°36'0 0.0
2018-Aug-07 04:29N 37°57' E 023°36'0 0.0
2018-Aug-07 03:59N 37°57' E 023°36'0 0.0
2018-Aug-07 03:29N 37°57' E 023°36'0 0.0
2018-Aug-07 02:59N 37°57' E 023°36'0 0.0
2018-Aug-07 02:29N 37°57' E 023°36'0 0.0
2018-Aug-07 01:59N 37°57' E 023°36'0 0.0
2018-Aug-07 01:29N 37°57' E 023°36'0 0.0
2018-Aug-07 00:59N 37°57' E 023°36'0 0.0
2018-Aug-07 00:23N 37°57' E 023°36'0 0.0
2018-Aug-06 23:59N 37°57' E 023°36'0 0.0
2018-Aug-06 23:29N 37°57' E 023°36'0 0.0
2018-Aug-06 22:59N 37°57' E 023°36'0 0.0
2018-Aug-06 22:29N 37°57' E 023°36'0 0.0
2018-Aug-06 21:59N 37°57' E 023°36'0 0.0
2018-Aug-06 21:29N 37°57' E 023°36'0 0.0
2018-Aug-06 20:59N 37°57' E 023°36'0 0.0
2018-Aug-06 20:29N 37°57' E 023°36'0 0.0
2018-Aug-06 19:59N 37°57' E 023°36'0 0.0
2018-Aug-06 19:29N 37°57' E 023°36'0 0.0
2018-Aug-06 18:59N 37°57' E 023°36'0 0.0
2018-Aug-06 18:29N 37°57' E 023°36'0 0.0
2018-Aug-06 17:59N 37°57' E 023°36'0 0.0
2018-Aug-06 17:29N 37°57' E 023°36'0 0.0
2018-Aug-06 16:59N 37°57' E 023°36'0 0.0
2018-Aug-06 16:29N 37°57' E 023°36'0 0.0
2018-Aug-06 15:59N 37°57' E 023°36'0 0.0
2018-Aug-06 15:29N 37°57' E 023°36'0 0.0
2018-Aug-06 14:59N 37°57' E 023°36'0 0.0
2018-Aug-06 14:29N 37°57' E 023°36'0 0.0
2018-Aug-06 13:59N 37°57' E 023°36'0 0.0
2018-Aug-06 13:29N 37°57' E 023°36'0 0.0
2018-Aug-06 12:59N 37°57' E 023°36'0 0.0
2018-Aug-06 12:29N 37°57' E 023°36'0 0.0
2018-Aug-06 11:59N 37°57' E 023°36'0 0.0
2018-Aug-06 11:29N 37°57' E 023°36'0 0.0
2018-Aug-06 11:00N 37°57' E 023°36'2 3.7
2018-Aug-06 10:30N 37°56' E 023°36'2 4.3
2018-Aug-06 10:00N 37°53' E 023°37'4 7.9
2018-Aug-06 09:30N 37°50' E 023°40'612.3
2018-Aug-06 09:00N 37°44' E 023°43'612.3
2018-Aug-06 08:30N 37°39' E 023°45'612.1
2018-Aug-06 07:58N 37°32' E 023°45'1 1.4
2018-Aug-06 07:29N 37°32' E 023°45'1 0.9
2018-Aug-06 06:55N 37°32' E 023°44'0 0.9
2018-Aug-06 06:29N 37°32' E 023°44'1 0.9
2018-Aug-06 05:55N 37°32' E 023°44'0 1.0
2018-Aug-06 05:29N 37°33' E 023°43'1 1.0
2018-Aug-06 04:58N 37°33' E 023°43'1 1.1
2018-Aug-06 04:14N 37°33' E 023°42'0 1.1
2018-Aug-06 04:00N 37°33' E 023°41'1 1.0
2018-Aug-06 03:30N 37°34' E 023°41'0 0.9
2018-Aug-06 03:00N 37°34' E 023°41'0 0.8
2018-Aug-06 02:30N 37°34' E 023°40'0 0.4
2018-Aug-06 01:58N 37°35' E 023°40'2 4.8
2018-Aug-06 01:30N 37°37' E 023°41'713.1
2018-Aug-06 01:00N 37°43' E 023°40'3 5.2
2018-Aug-06 00:30N 37°45' E 023°42'510.7
2018-Aug-06 00:00N 37°40' E 023°45'2410.0
2018-Aug-05 21:35N 37°44' E 024°15'  

Dump ship's entire track history